sensor_id;sensor_type;location;lat;lon;timestamp;P1;durP1;ratioP1;P2;durP2;ratioP2
11539;SDS011;5826;54.756;9.192;2023-06-22T00:01:26;4.70;;;4.20;;
11539;SDS011;5826;54.756;9.192;2023-06-22T00:03:52;4.22;;;3.83;;
11539;SDS011;5826;54.756;9.192;2023-06-22T00:06:18;4.65;;;4.00;;
11539;SDS011;5826;54.756;9.192;2023-06-22T00:08:43;4.50;;;4.10;;
11539;SDS011;5826;54.756;9.192;2023-06-22T00:11:09;4.70;;;4.20;;
11539;SDS011;5826;54.756;9.192;2023-06-22T00:13:34;4.28;;;3.88;;
11539;SDS011;5826;54.756;9.192;2023-06-22T00:16:00;4.20;;;3.80;;
11539;SDS011;5826;54.756;9.192;2023-06-22T00:18:25;4.47;;;3.92;;
11539;SDS011;5826;54.756;9.192;2023-06-22T00:20:53;4.35;;;3.80;;
11539;SDS011;5826;54.756;9.192;2023-06-22T00:23:22;4.07;;;3.70;;
11539;SDS011;5826;54.756;9.192;2023-06-22T00:25:48;3.80;;;3.33;;
11539;SDS011;5826;54.756;9.192;2023-06-22T00:28:15;5.13;;;4.00;;
11539;SDS011;5826;54.756;9.192;2023-06-22T00:30:40;3.97;;;3.58;;
11539;SDS011;5826;54.756;9.192;2023-06-22T00:33:06;3.83;;;3.50;;
11539;SDS011;5826;54.756;9.192;2023-06-22T00:35:32;4.05;;;3.65;;
11539;SDS011;5826;54.756;9.192;2023-06-22T00:37:59;4.97;;;3.97;;
11539;SDS011;5826;54.756;9.192;2023-06-22T00:40:34;4.15;;;3.80;;
11539;SDS011;5826;54.756;9.192;2023-06-22T00:43:00;4.10;;;3.70;;
11539;SDS011;5826;54.756;9.192;2023-06-22T00:45:26;3.78;;;3.47;;
11539;SDS011;5826;54.756;9.192;2023-06-22T00:47:52;4.18;;;3.72;;
11539;SDS011;5826;54.756;9.192;2023-06-22T00:50:20;5.32;;;3.92;;
11539;SDS011;5826;54.756;9.192;2023-06-22T00:52:48;4.82;;;4.05;;
11539;SDS011;5826;54.756;9.192;2023-06-22T00:55:16;3.88;;;3.50;;
11539;SDS011;5826;54.756;9.192;2023-06-22T00:57:43;4.50;;;3.80;;
11539;SDS011;5826;54.756;9.192;2023-06-22T01:00:11;4.10;;;3.70;;
11539;SDS011;5826;54.756;9.192;2023-06-22T01:02:43;4.30;;;3.90;;
11539;SDS011;5826;54.756;9.192;2023-06-22T01:05:14;4.30;;;3.90;;
11539;SDS011;5826;54.756;9.192;2023-06-22T01:07:42;4.65;;;4.22;;
11539;SDS011;5826;54.756;9.192;2023-06-22T01:13:01;4.55;;;4.15;;
11539;SDS011;5826;54.756;9.192;2023-06-22T01:15:51;4.68;;;4.18;;
11539;SDS011;5826;54.756;9.192;2023-06-22T01:18:18;4.80;;;3.83;;
11539;SDS011;5826;54.756;9.192;2023-06-22T01:20:45;4.50;;;4.10;;
11539;SDS011;5826;54.756;9.192;2023-06-22T01:23:29;5.07;;;4.57;;
11539;SDS011;5826;54.756;9.192;2023-06-22T01:26:17;4.47;;;4.07;;
11539;SDS011;5826;54.756;9.192;2023-06-22T01:28:47;4.78;;;4.38;;
11539;SDS011;5826;54.756;9.192;2023-06-22T01:31:16;5.38;;;4.80;;
11539;SDS011;5826;54.756;9.192;2023-06-22T01:33:43;4.88;;;4.38;;
11539;SDS011;5826;54.756;9.192;2023-06-22T01:36:11;5.60;;;4.40;;
11539;SDS011;5826;54.756;9.192;2023-06-22T01:38:39;4.93;;;4.43;;
11539;SDS011;5826;54.756;9.192;2023-06-22T01:41:05;4.63;;;4.22;;
11539;SDS011;5826;54.756;9.192;2023-06-22T01:43:31;4.90;;;4.40;;
11539;SDS011;5826;54.756;9.192;2023-06-22T01:45:58;4.60;;;4.13;;
11539;SDS011;5826;54.756;9.192;2023-06-22T01:48:25;4.78;;;4.20;;
11539;SDS011;5826;54.756;9.192;2023-06-22T01:50:51;4.75;;;4.10;;
11539;SDS011;5826;54.756;9.192;2023-06-22T01:53:20;4.90;;;4.50;;
11539;SDS011;5826;54.756;9.192;2023-06-22T01:55:46;5.13;;;4.68;;
11539;SDS011;5826;54.756;9.192;2023-06-22T01:58:12;4.88;;;4.45;;
11539;SDS011;5826;54.756;9.192;2023-06-22T02:00:38;5.50;;;4.88;;
11539;SDS011;5826;54.756;9.192;2023-06-22T02:03:10;5.50;;;5.00;;
11539;SDS011;5826;54.756;9.192;2023-06-22T02:05:43;6.57;;;5.05;;
11539;SDS011;5826;54.756;9.192;2023-06-22T02:08:17;5.13;;;4.55;;
11539;SDS011;5826;54.756;9.192;2023-06-22T02:10:52;5.10;;;4.70;;
11539;SDS011;5826;54.756;9.192;2023-06-22T02:13:19;5.13;;;4.43;;
11539;SDS011;5826;54.756;9.192;2023-06-22T02:15:45;5.20;;;4.70;;
11539;SDS011;5826;54.756;9.192;2023-06-22T02:18:12;4.85;;;4.38;;
11539;SDS011;5826;54.756;9.192;2023-06-22T02:20:38;4.78;;;4.38;;
11539;SDS011;5826;54.756;9.192;2023-06-22T02:23:07;4.95;;;4.55;;
11539;SDS011;5826;54.756;9.192;2023-06-22T02:25:33;4.80;;;4.40;;
11539;SDS011;5826;54.756;9.192;2023-06-22T02:27:59;4.72;;;4.25;;
11539;SDS011;5826;54.756;9.192;2023-06-22T02:30:25;4.63;;;4.15;;
11539;SDS011;5826;54.756;9.192;2023-06-22T02:32:50;4.72;;;4.15;;
11539;SDS011;5826;54.756;9.192;2023-06-22T02:35:27;4.80;;;4.30;;
11539;SDS011;5826;54.756;9.192;2023-06-22T02:37:56;4.18;;;3.78;;
11539;SDS011;5826;54.756;9.192;2023-06-22T02:40:26;4.40;;;4.00;;
11539;SDS011;5826;54.756;9.192;2023-06-22T02:42:52;5.00;;;4.40;;
11539;SDS011;5826;54.756;9.192;2023-06-22T02:45:18;5.07;;;4.53;;
11539;SDS011;5826;54.756;9.192;2023-06-22T02:47:43;4.80;;;4.35;;
11539;SDS011;5826;54.756;9.192;2023-06-22T02:50:09;4.32;;;3.97;;
11539;SDS011;5826;54.756;9.192;2023-06-22T02:52:35;5.13;;;4.68;;
11539;SDS011;5826;54.756;9.192;2023-06-22T02:55:01;4.50;;;4.10;;
11539;SDS011;5826;54.756;9.192;2023-06-22T02:57:26;4.47;;;4.07;;
11539;SDS011;5826;54.756;9.192;2023-06-22T02:59:52;5.05;;;4.55;;
11539;SDS011;5826;54.756;9.192;2023-06-22T03:02:17;4.10;;;3.75;;
11539;SDS011;5826;54.756;9.192;2023-06-22T03:04:45;4.53;;;4.10;;
11539;SDS011;5826;54.756;9.192;2023-06-22T03:07:14;4.78;;;4.38;;
11539;SDS011;5826;54.756;9.192;2023-06-22T03:09:40;4.32;;;3.92;;
11539;SDS011;5826;54.756;9.192;2023-06-22T03:12:07;4.97;;;4.00;;
11539;SDS011;5826;54.756;9.192;2023-06-22T03:14:32;4.72;;;4.32;;
11539;SDS011;5826;54.756;9.192;2023-06-22T03:16:58;5.43;;;4.20;;
11539;SDS011;5826;54.756;9.192;2023-06-22T03:19:28;4.85;;;4.35;;
11539;SDS011;5826;54.756;9.192;2023-06-22T03:21:54;4.47;;;3.78;;
11539;SDS011;5826;54.756;9.192;2023-06-22T03:24:20;4.78;;;4.38;;
11539;SDS011;5826;54.756;9.192;2023-06-22T03:26:45;4.65;;;4.25;;
11539;SDS011;5826;54.756;9.192;2023-06-22T03:29:11;4.80;;;4.40;;
11539;SDS011;5826;54.756;9.192;2023-06-22T03:31:37;5.32;;;4.82;;
11539;SDS011;5826;54.756;9.192;2023-06-22T03:34:03;4.68;;;4.20;;
11539;SDS011;5826;54.756;9.192;2023-06-22T03:36:28;4.80;;;4.40;;
11539;SDS011;5826;54.756;9.192;2023-06-22T03:38:54;4.90;;;4.50;;
11539;SDS011;5826;54.756;9.192;2023-06-22T03:41:19;4.60;;;4.20;;
11539;SDS011;5826;54.756;9.192;2023-06-22T03:43:45;5.30;;;4.80;;
11539;SDS011;5826;54.756;9.192;2023-06-22T03:46:10;5.20;;;4.70;;
11539;SDS011;5826;54.756;9.192;2023-06-22T03:48:36;5.40;;;4.90;;
11539;SDS011;5826;54.756;9.192;2023-06-22T03:51:02;5.70;;;5.20;;
11539;SDS011;5826;54.756;9.192;2023-06-22T03:53:31;5.63;;;5.10;;
11539;SDS011;5826;54.756;9.192;2023-06-22T03:55:56;5.43;;;4.93;;
11539;SDS011;5826;54.756;9.192;2023-06-22T03:58:22;5.30;;;4.80;;
11539;SDS011;5826;54.756;9.192;2023-06-22T04:00:48;6.03;;;5.10;;
11539;SDS011;5826;54.756;9.192;2023-06-22T04:03:14;4.68;;;4.28;;
11539;SDS011;5826;54.756;9.192;2023-06-22T04:05:41;5.30;;;4.80;;
11539;SDS011;5826;54.756;9.192;2023-06-22T04:08:07;5.00;;;4.50;;
11539;SDS011;5826;54.756;9.192;2023-06-22T04:10:33;5.43;;;4.40;;
11539;SDS011;5826;54.756;9.192;2023-06-22T04:12:58;4.85;;;4.35;;
11539;SDS011;5826;54.756;9.192;2023-06-22T04:15:24;5.30;;;4.80;;
11539;SDS011;5826;54.756;9.192;2023-06-22T04:17:50;4.85;;;4.35;;
11539;SDS011;5826;54.756;9.192;2023-06-22T04:20:15;4.95;;;4.43;;
11539;SDS011;5826;54.756;9.192;2023-06-22T04:22:41;4.80;;;4.40;;
11539;SDS011;5826;54.756;9.192;2023-06-22T04:25:06;4.90;;;4.47;;
11539;SDS011;5826;54.756;9.192;2023-06-22T04:27:34;5.07;;;4.60;;
11539;SDS011;5826;54.756;9.192;2023-06-22T04:30:02;4.38;;;3.97;;
11539;SDS011;5826;54.756;9.192;2023-06-22T04:32:28;4.40;;;4.00;;
11539;SDS011;5826;54.756;9.192;2023-06-22T04:34:54;4.43;;;4.03;;
11539;SDS011;5826;54.756;9.192;2023-06-22T04:37:19;4.43;;;3.95;;
11539;SDS011;5826;54.756;9.192;2023-06-22T04:39:48;4.40;;;4.00;;
11539;SDS011;5826;54.756;9.192;2023-06-22T04:42:14;4.40;;;4.00;;
11539;SDS011;5826;54.756;9.192;2023-06-22T04:44:39;5.00;;;4.38;;
11539;SDS011;5826;54.756;9.192;2023-06-22T04:47:07;4.53;;;4.05;;
11539;SDS011;5826;54.756;9.192;2023-06-22T04:49:33;4.82;;;4.43;;
11539;SDS011;5826;54.756;9.192;2023-06-22T04:52:03;5.22;;;4.47;;
11539;SDS011;5826;54.756;9.192;2023-06-22T04:54:30;5.10;;;4.60;;
11539;SDS011;5826;54.756;9.192;2023-06-22T04:57:00;5.90;;;4.70;;
11539;SDS011;5826;54.756;9.192;2023-06-22T04:59:30;5.47;;;4.93;;
11539;SDS011;5826;54.756;9.192;2023-06-22T05:02:00;5.22;;;4.72;;
11539;SDS011;5826;54.756;9.192;2023-06-22T05:04:26;4.57;;;4.18;;
11539;SDS011;5826;54.756;9.192;2023-06-22T05:06:53;4.70;;;4.18;;
11539;SDS011;5826;54.756;9.192;2023-06-22T05:09:19;5.20;;;4.70;;
11539;SDS011;5826;54.756;9.192;2023-06-22T05:11:45;5.35;;;4.80;;
11539;SDS011;5826;54.756;9.192;2023-06-22T05:14:11;6.03;;;4.97;;
11539;SDS011;5826;54.756;9.192;2023-06-22T05:16:37;5.10;;;4.53;;
11539;SDS011;5826;54.756;9.192;2023-06-22T05:19:03;5.03;;;4.50;;
11539;SDS011;5826;54.756;9.192;2023-06-22T05:21:28;5.28;;;4.78;;
11539;SDS011;5826;54.756;9.192;2023-06-22T05:23:55;4.70;;;4.30;;
11539;SDS011;5826;54.756;9.192;2023-06-22T05:26:25;4.78;;;4.07;;
11539;SDS011;5826;54.756;9.192;2023-06-22T05:28:51;5.28;;;4.78;;
11539;SDS011;5826;54.756;9.192;2023-06-22T05:31:17;4.85;;;4.35;;
11539;SDS011;5826;54.756;9.192;2023-06-22T05:33:45;5.72;;;4.60;;
11539;SDS011;5826;54.756;9.192;2023-06-22T05:36:11;5.05;;;4.55;;
11539;SDS011;5826;54.756;9.192;2023-06-22T05:38:37;5.15;;;4.57;;
11539;SDS011;5826;54.756;9.192;2023-06-22T05:41:03;4.75;;;3.60;;
11539;SDS011;5826;54.756;9.192;2023-06-22T05:43:29;4.45;;;4.05;;
11539;SDS011;5826;54.756;9.192;2023-06-22T05:45:55;4.78;;;4.28;;
11539;SDS011;5826;54.756;9.192;2023-06-22T05:48:20;4.43;;;4.00;;
11539;SDS011;5826;54.756;9.192;2023-06-22T05:50:46;4.38;;;3.97;;
11539;SDS011;5826;54.756;9.192;2023-06-22T05:53:11;4.22;;;3.83;;
11539;SDS011;5826;54.756;9.192;2023-06-22T05:55:37;4.63;;;4.13;;
11539;SDS011;5826;54.756;9.192;2023-06-22T05:58:02;4.32;;;3.78;;
11539;SDS011;5826;54.756;9.192;2023-06-22T06:00:28;4.35;;;3.60;;
11539;SDS011;5826;54.756;9.192;2023-06-22T06:02:54;4.53;;;3.88;;
11539;SDS011;5826;54.756;9.192;2023-06-22T06:05:20;4.13;;;3.60;;
11539;SDS011;5826;54.756;9.192;2023-06-22T06:07:45;4.50;;;4.10;;
11539;SDS011;5826;54.756;9.192;2023-06-22T06:10:11;4.05;;;3.45;;
11539;SDS011;5826;54.756;9.192;2023-06-22T06:12:37;9.15;;;7.53;;
11539;SDS011;5826;54.756;9.192;2023-06-22T06:15:03;5.65;;;4.95;;
11539;SDS011;5826;54.756;9.192;2023-06-22T06:17:29;4.55;;;4.15;;
11539;SDS011;5826;54.756;9.192;2023-06-22T06:19:55;4.63;;;3.70;;
11539;SDS011;5826;54.756;9.192;2023-06-22T06:22:21;4.15;;;3.75;;
11539;SDS011;5826;54.756;9.192;2023-06-22T06:24:48;3.70;;;3.30;;
11539;SDS011;5826;54.756;9.192;2023-06-22T06:27:14;4.47;;;3.65;;
11539;SDS011;5826;54.756;9.192;2023-06-22T06:29:41;3.22;;;2.92;;
11539;SDS011;5826;54.756;9.192;2023-06-22T06:32:06;2.95;;;2.65;;
11539;SDS011;5826;54.756;9.192;2023-06-22T06:34:32;3.00;;;2.70;;
11539;SDS011;5826;54.756;9.192;2023-06-22T06:36:57;2.70;;;2.50;;
11539;SDS011;5826;54.756;9.192;2023-06-22T06:39:23;2.53;;;2.33;;
11539;SDS011;5826;54.756;9.192;2023-06-22T06:41:49;2.90;;;2.35;;
11539;SDS011;5826;54.756;9.192;2023-06-22T06:44:15;4.30;;;3.72;;
11539;SDS011;5826;54.756;9.192;2023-06-22T06:46:40;3.55;;;2.55;;
11539;SDS011;5826;54.756;9.192;2023-06-22T06:49:07;4.15;;;3.30;;
11539;SDS011;5826;54.756;9.192;2023-06-22T06:51:32;4.00;;;3.60;;
11539;SDS011;5826;54.756;9.192;2023-06-22T06:53:58;3.15;;;2.60;;
11539;SDS011;5826;54.756;9.192;2023-06-22T06:56:23;3.58;;;2.80;;
11539;SDS011;5826;54.756;9.192;2023-06-22T06:58:50;2.60;;;2.40;;
11539;SDS011;5826;54.756;9.192;2023-06-22T07:01:15;2.28;;;2.08;;
11539;SDS011;5826;54.756;9.192;2023-06-22T07:03:41;4.35;;;3.95;;
11539;SDS011;5826;54.756;9.192;2023-06-22T07:06:07;2.33;;;2.08;;
11539;SDS011;5826;54.756;9.192;2023-06-22T07:08:33;2.50;;;2.30;;
11539;SDS011;5826;54.756;9.192;2023-06-22T07:11:00;2.63;;;2.30;;
11539;SDS011;5826;54.756;9.192;2023-06-22T07:13:25;2.17;;;1.98;;
11539;SDS011;5826;54.756;9.192;2023-06-22T07:15:51;2.00;;;1.80;;
11539;SDS011;5826;54.756;9.192;2023-06-22T07:18:16;2.28;;;1.80;;
11539;SDS011;5826;54.756;9.192;2023-06-22T07:20:42;1.55;;;1.45;;
11539;SDS011;5826;54.756;9.192;2023-06-22T07:23:07;1.80;;;1.70;;
11539;SDS011;5826;54.756;9.192;2023-06-22T07:25:33;1.60;;;1.50;;
11539;SDS011;5826;54.756;9.192;2023-06-22T07:27:59;2.30;;;1.83;;
11539;SDS011;5826;54.756;9.192;2023-06-22T07:30:27;2.83;;;2.00;;
11539;SDS011;5826;54.756;9.192;2023-06-22T07:32:53;2.35;;;1.80;;
11539;SDS011;5826;54.756;9.192;2023-06-22T07:35:18;1.75;;;1.60;;
11539;SDS011;5826;54.756;9.192;2023-06-22T07:37:44;1.48;;;1.38;;
11539;SDS011;5826;54.756;9.192;2023-06-22T07:40:10;3.05;;;2.22;;
11539;SDS011;5826;54.756;9.192;2023-06-22T07:42:35;2.75;;;1.90;;
11539;SDS011;5826;54.756;9.192;2023-06-22T07:45:02;1.70;;;1.60;;
11539;SDS011;5826;54.756;9.192;2023-06-22T07:47:29;2.00;;;1.80;;
11539;SDS011;5826;54.756;9.192;2023-06-22T07:49:55;1.98;;;1.55;;
11539;SDS011;5826;54.756;9.192;2023-06-22T07:52:23;1.90;;;1.50;;
11539;SDS011;5826;54.756;9.192;2023-06-22T07:54:50;1.98;;;1.50;;
11539;SDS011;5826;54.756;9.192;2023-06-22T07:57:16;1.92;;;1.70;;
11539;SDS011;5826;54.756;9.192;2023-06-22T07:59:41;1.73;;;1.63;;
11539;SDS011;5826;54.756;9.192;2023-06-22T08:02:08;1.90;;;1.70;;
11539;SDS011;5826;54.756;9.192;2023-06-22T08:04:34;2.28;;;1.80;;
11539;SDS011;5826;54.756;9.192;2023-06-22T08:07:00;1.92;;;1.42;;
11539;SDS011;5826;54.756;9.192;2023-06-22T08:09:30;2.10;;;1.90;;
11539;SDS011;5826;54.756;9.192;2023-06-22T08:11:56;2.22;;;1.75;;
11539;SDS011;5826;54.756;9.192;2023-06-22T08:14:23;2.08;;;1.60;;
11539;SDS011;5826;54.756;9.192;2023-06-22T08:16:50;1.50;;;1.40;;
11539;SDS011;5826;54.756;9.192;2023-06-22T08:19:15;1.70;;;1.60;;
11539;SDS011;5826;54.756;9.192;2023-06-22T08:21:41;2.00;;;1.80;;
11539;SDS011;5826;54.756;9.192;2023-06-22T08:24:06;1.50;;;1.40;;
11539;SDS011;5826;54.756;9.192;2023-06-22T08:26:32;4.28;;;2.22;;
11539;SDS011;5826;54.756;9.192;2023-06-22T08:29:01;2.80;;;2.25;;
11539;SDS011;5826;54.756;9.192;2023-06-22T08:31:27;2.42;;;1.80;;
11539;SDS011;5826;54.756;9.192;2023-06-22T08:33:52;1.90;;;1.50;;
11539;SDS011;5826;54.756;9.192;2023-06-22T08:36:18;2.58;;;1.45;;
11539;SDS011;5826;54.756;9.192;2023-06-22T08:38:43;2.15;;;1.80;;
11539;SDS011;5826;54.756;9.192;2023-06-22T08:41:09;1.60;;;1.50;;
11539;SDS011;5826;54.756;9.192;2023-06-22T08:43:35;1.75;;;1.65;;
11539;SDS011;5826;54.756;9.192;2023-06-22T08:46:01;2.08;;;1.70;;
11539;SDS011;5826;54.756;9.192;2023-06-22T08:48:27;2.05;;;1.65;;
11539;SDS011;5826;54.756;9.192;2023-06-22T08:50:53;1.67;;;1.55;;
11539;SDS011;5826;54.756;9.192;2023-06-22T08:53:18;1.65;;;1.50;;
11539;SDS011;5826;54.756;9.192;2023-06-22T08:55:44;2.10;;;1.90;;
11539;SDS011;5826;54.756;9.192;2023-06-22T08:58:10;1.80;;;1.70;;
11539;SDS011;5826;54.756;9.192;2023-06-22T09:00:35;1.45;;;1.35;;
11539;SDS011;5826;54.756;9.192;2023-06-22T09:03:02;3.72;;;2.35;;
11539;SDS011;5826;54.756;9.192;2023-06-22T09:05:27;1.77;;;1.55;;
11539;SDS011;5826;54.756;9.192;2023-06-22T09:07:56;2.88;;;2.60;;
11539;SDS011;5826;54.756;9.192;2023-06-22T09:10:23;4.57;;;3.83;;
11539;SDS011;5826;54.756;9.192;2023-06-22T09:12:49;4.47;;;2.83;;
11539;SDS011;5826;54.756;9.192;2023-06-22T09:15:14;2.70;;;2.50;;
11539;SDS011;5826;54.756;9.192;2023-06-22T09:17:40;2.40;;;2.20;;
11539;SDS011;5826;54.756;9.192;2023-06-22T09:20:06;2.55;;;1.83;;
11539;SDS011;5826;54.756;9.192;2023-06-22T09:22:35;2.10;;;1.88;;
11539;SDS011;5826;54.756;9.192;2023-06-22T09:25:01;2.63;;;2.10;;
11539;SDS011;5826;54.756;9.192;2023-06-22T09:27:27;2.08;;;1.88;;
11539;SDS011;5826;54.756;9.192;2023-06-22T09:29:53;2.30;;;2.10;;
11539;SDS011;5826;54.756;9.192;2023-06-22T09:32:18;2.45;;;1.80;;
11539;SDS011;5826;54.756;9.192;2023-06-22T09:34:44;4.05;;;2.60;;
11539;SDS011;5826;54.756;9.192;2023-06-22T09:37:09;2.58;;;2.38;;
11539;SDS011;5826;54.756;9.192;2023-06-22T09:39:35;3.10;;;2.40;;
11539;SDS011;5826;54.756;9.192;2023-06-22T09:42:01;1.90;;;1.70;;
11539;SDS011;5826;54.756;9.192;2023-06-22T09:44:27;5.18;;;3.13;;
11539;SDS011;5826;54.756;9.192;2023-06-22T09:46:53;2.30;;;2.03;;
11539;SDS011;5826;54.756;9.192;2023-06-22T09:49:18;2.03;;;1.80;;
11539;SDS011;5826;54.756;9.192;2023-06-22T09:51:44;2.58;;;1.85;;
11539;SDS011;5826;54.756;9.192;2023-06-22T09:54:09;2.83;;;1.75;;
11539;SDS011;5826;54.756;9.192;2023-06-22T09:56:35;1.67;;;1.58;;
11539;SDS011;5826;54.756;9.192;2023-06-22T09:59:02;1.70;;;1.60;;
11539;SDS011;5826;54.756;9.192;2023-06-22T10:01:28;3.50;;;1.80;;
11539;SDS011;5826;54.756;9.192;2023-06-22T10:03:53;1.67;;;1.58;;
11539;SDS011;5826;54.756;9.192;2023-06-22T10:06:22;1.85;;;1.65;;
11539;SDS011;5826;54.756;9.192;2023-06-22T10:08:50;1.80;;;1.70;;
11539;SDS011;5826;54.756;9.192;2023-06-22T10:11:15;1.80;;;1.23;;
11539;SDS011;5826;54.756;9.192;2023-06-22T10:13:41;1.50;;;1.40;;
11539;SDS011;5826;54.756;9.192;2023-06-22T10:16:06;1.50;;;1.40;;
11539;SDS011;5826;54.756;9.192;2023-06-22T10:18:32;2.47;;;1.60;;
11539;SDS011;5826;54.756;9.192;2023-06-22T10:20:58;1.90;;;1.65;;
11539;SDS011;5826;54.756;9.192;2023-06-22T10:23:23;1.58;;;1.30;;
11539;SDS011;5826;54.756;9.192;2023-06-22T10:25:49;1.60;;;1.50;;
11539;SDS011;5826;54.756;9.192;2023-06-22T10:28:14;1.70;;;1.60;;
11539;SDS011;5826;54.756;9.192;2023-06-22T10:30:40;1.77;;;1.50;;
11539;SDS011;5826;54.756;9.192;2023-06-22T10:33:07;1.70;;;1.40;;
11539;SDS011;5826;54.756;9.192;2023-06-22T10:35:33;1.95;;;1.63;;
11539;SDS011;5826;54.756;9.192;2023-06-22T10:37:58;1.65;;;1.50;;
11539;SDS011;5826;54.756;9.192;2023-06-22T10:40:24;1.70;;;1.60;;
11539;SDS011;5826;54.756;9.192;2023-06-22T10:42:50;2.25;;;1.42;;
11539;SDS011;5826;54.756;9.192;2023-06-22T10:45:16;2.22;;;1.80;;
11539;SDS011;5826;54.756;9.192;2023-06-22T10:47:41;1.80;;;1.70;;
11539;SDS011;5826;54.756;9.192;2023-06-22T10:50:07;2.28;;;1.70;;
11539;SDS011;5826;54.756;9.192;2023-06-22T10:52:33;1.70;;;1.60;;
11539;SDS011;5826;54.756;9.192;2023-06-22T10:54:58;2.60;;;2.17;;
11539;SDS011;5826;54.756;9.192;2023-06-22T10:57:24;2.17;;;1.80;;
11539;SDS011;5826;54.756;9.192;2023-06-22T10:59:49;2.25;;;1.98;;
11539;SDS011;5826;54.756;9.192;2023-06-22T11:02:15;2.33;;;1.83;;
11539;SDS011;5826;54.756;9.192;2023-06-22T11:04:40;1.95;;;1.67;;
11539;SDS011;5826;54.756;9.192;2023-06-22T11:07:06;2.22;;;1.80;;
11539;SDS011;5826;54.756;9.192;2023-06-22T11:09:31;2.03;;;1.80;;
11539;SDS011;5826;54.756;9.192;2023-06-22T11:11:57;1.83;;;1.45;;
11539;SDS011;5826;54.756;9.192;2023-06-22T11:14:24;1.58;;;1.48;;
11539;SDS011;5826;54.756;9.192;2023-06-22T11:16:50;1.80;;;1.70;;
11539;SDS011;5826;54.756;9.192;2023-06-22T11:19:15;2.08;;;1.80;;
11539;SDS011;5826;54.756;9.192;2023-06-22T11:21:41;1.95;;;1.65;;
11539;SDS011;5826;54.756;9.192;2023-06-22T11:24:07;2.72;;;2.05;;
11539;SDS011;5826;54.756;9.192;2023-06-22T11:26:32;2.55;;;1.95;;
11539;SDS011;5826;54.756;9.192;2023-06-22T11:28:58;1.73;;;1.63;;
11539;SDS011;5826;54.756;9.192;2023-06-22T11:31:24;2.03;;;1.83;;
11539;SDS011;5826;54.756;9.192;2023-06-22T11:33:49;1.67;;;1.55;;
11539;SDS011;5826;54.756;9.192;2023-06-22T11:36:15;1.67;;;1.58;;
11539;SDS011;5826;54.756;9.192;2023-06-22T11:38:40;1.58;;;1.48;;
11539;SDS011;5826;54.756;9.192;2023-06-22T11:41:07;1.88;;;1.50;;
11539;SDS011;5826;54.756;9.192;2023-06-22T11:43:33;2.00;;;1.80;;
11539;SDS011;5826;54.756;9.192;2023-06-22T11:45:59;2.05;;;1.52;;
11539;SDS011;5826;54.756;9.192;2023-06-22T11:48:26;1.60;;;1.50;;
11539;SDS011;5826;54.756;9.192;2023-06-22T11:50:51;2.10;;;1.90;;
11539;SDS011;5826;54.756;9.192;2023-06-22T11:53:17;1.60;;;1.45;;
11539;SDS011;5826;54.756;9.192;2023-06-22T11:55:43;1.80;;;1.70;;
11539;SDS011;5826;54.756;9.192;2023-06-22T11:58:09;1.90;;;1.80;;
11539;SDS011;5826;54.756;9.192;2023-06-22T12:00:34;2.05;;;1.80;;
11539;SDS011;5826;54.756;9.192;2023-06-22T12:03:00;1.88;;;1.70;;
11539;SDS011;5826;54.756;9.192;2023-06-22T12:05:25;1.70;;;1.60;;
11539;SDS011;5826;54.756;9.192;2023-06-22T12:07:53;1.73;;;1.63;;
11539;SDS011;5826;54.756;9.192;2023-06-22T12:10:19;1.95;;;1.80;;
11539;SDS011;5826;54.756;9.192;2023-06-22T12:12:45;1.70;;;1.60;;
11539;SDS011;5826;54.756;9.192;2023-06-22T12:15:10;1.77;;;1.67;;
11539;SDS011;5826;54.756;9.192;2023-06-22T12:17:36;2.40;;;1.88;;
11539;SDS011;5826;54.756;9.192;2023-06-22T12:20:02;1.60;;;1.50;;
11539;SDS011;5826;54.756;9.192;2023-06-22T12:22:30;2.45;;;1.75;;
11539;SDS011;5826;54.756;9.192;2023-06-22T12:24:57;1.63;;;1.52;;
11539;SDS011;5826;54.756;9.192;2023-06-22T12:27:22;2.13;;;1.90;;
11539;SDS011;5826;54.756;9.192;2023-06-22T12:29:48;1.98;;;1.70;;
11539;SDS011;5826;54.756;9.192;2023-06-22T12:32:13;2.58;;;1.75;;
11539;SDS011;5826;54.756;9.192;2023-06-22T12:34:39;2.08;;;1.80;;
11539;SDS011;5826;54.756;9.192;2023-06-22T12:37:06;2.20;;;1.60;;
11539;SDS011;5826;54.756;9.192;2023-06-22T12:39:32;1.80;;;1.70;;
11539;SDS011;5826;54.756;9.192;2023-06-22T12:41:57;1.73;;;1.60;;
11539;SDS011;5826;54.756;9.192;2023-06-22T12:44:23;1.65;;;1.55;;
11539;SDS011;5826;54.756;9.192;2023-06-22T12:46:49;1.92;;;1.65;;
11539;SDS011;5826;54.756;9.192;2023-06-22T12:49:15;1.60;;;1.50;;
11539;SDS011;5826;54.756;9.192;2023-06-22T12:51:41;1.60;;;1.50;;
11539;SDS011;5826;54.756;9.192;2023-06-22T12:54:08;1.88;;;1.60;;
11539;SDS011;5826;54.756;9.192;2023-06-22T12:56:33;1.60;;;1.50;;
11539;SDS011;5826;54.756;9.192;2023-06-22T12:58:59;1.85;;;1.67;;
11539;SDS011;5826;54.756;9.192;2023-06-22T13:01:27;1.60;;;1.50;;
11539;SDS011;5826;54.756;9.192;2023-06-22T13:03:53;1.55;;;1.45;;
11539;SDS011;5826;54.756;9.192;2023-06-22T13:06:19;1.70;;;1.60;;
11539;SDS011;5826;54.756;9.192;2023-06-22T13:08:45;1.45;;;1.35;;
11539;SDS011;5826;54.756;9.192;2023-06-22T13:11:10;1.63;;;1.52;;
11539;SDS011;5826;54.756;9.192;2023-06-22T13:13:36;1.52;;;1.42;;
11539;SDS011;5826;54.756;9.192;2023-06-22T13:16:01;1.60;;;1.50;;
11539;SDS011;5826;54.756;9.192;2023-06-22T13:18:27;1.70;;;1.60;;
11539;SDS011;5826;54.756;9.192;2023-06-22T13:20:52;1.85;;;1.50;;
11539;SDS011;5826;54.756;9.192;2023-06-22T13:23:19;2.53;;;1.60;;
11539;SDS011;5826;54.756;9.192;2023-06-22T13:25:46;3.00;;;1.80;;
11539;SDS011;5826;54.756;9.192;2023-06-22T13:28:11;1.58;;;1.48;;
11539;SDS011;5826;54.756;9.192;2023-06-22T13:30:38;1.90;;;1.80;;
11539;SDS011;5826;54.756;9.192;2023-06-22T13:33:07;1.80;;;1.60;;
11539;SDS011;5826;54.756;9.192;2023-06-22T13:35:33;1.50;;;1.40;;
11539;SDS011;5826;54.756;9.192;2023-06-22T13:38:00;1.88;;;1.50;;
11539;SDS011;5826;54.756;9.192;2023-06-22T13:40:25;2.20;;;1.80;;
11539;SDS011;5826;54.756;9.192;2023-06-22T13:42:51;1.98;;;1.80;;
11539;SDS011;5826;54.756;9.192;2023-06-22T13:45:17;1.92;;;1.70;;
11539;SDS011;5826;54.756;9.192;2023-06-22T13:47:43;1.98;;;1.65;;
11539;SDS011;5826;54.756;9.192;2023-06-22T13:50:09;2.38;;;1.80;;
11539;SDS011;5826;54.756;9.192;2023-06-22T13:52:35;1.77;;;1.60;;
11539;SDS011;5826;54.756;9.192;2023-06-22T13:55:01;1.92;;;1.50;;
11539;SDS011;5826;54.756;9.192;2023-06-22T13:57:27;2.28;;;1.70;;
11539;SDS011;5826;54.756;9.192;2023-06-22T13:59:52;1.67;;;1.58;;
11539;SDS011;5826;54.756;9.192;2023-06-22T14:02:18;3.42;;;1.58;;
11539;SDS011;5826;54.756;9.192;2023-06-22T14:04:44;1.92;;;1.70;;
11539;SDS011;5826;54.756;9.192;2023-06-22T14:07:09;1.88;;;1.67;;
11539;SDS011;5826;54.756;9.192;2023-06-22T14:09:35;1.88;;;1.73;;
11539;SDS011;5826;54.756;9.192;2023-06-22T14:12:04;1.73;;;1.63;;
11539;SDS011;5826;54.756;9.192;2023-06-22T14:14:31;1.60;;;1.50;;
11539;SDS011;5826;54.756;9.192;2023-06-22T14:16:57;1.67;;;1.58;;
11539;SDS011;5826;54.756;9.192;2023-06-22T14:19:22;3.85;;;1.55;;
11539;SDS011;5826;54.756;9.192;2023-06-22T14:21:47;1.60;;;1.50;;
11539;SDS011;5826;54.756;9.192;2023-06-22T14:24:13;2.00;;;1.80;;
11539;SDS011;5826;54.756;9.192;2023-06-22T14:26:38;2.05;;;1.60;;
11539;SDS011;5826;54.756;9.192;2023-06-22T14:29:04;2.15;;;1.60;;
11539;SDS011;5826;54.756;9.192;2023-06-22T14:31:30;1.83;;;1.60;;
11539;SDS011;5826;54.756;9.192;2023-06-22T14:33:55;2.25;;;1.77;;
11539;SDS011;5826;54.756;9.192;2023-06-22T14:36:21;2.00;;;1.80;;
11539;SDS011;5826;54.756;9.192;2023-06-22T14:38:46;1.60;;;1.50;;
11539;SDS011;5826;54.756;9.192;2023-06-22T14:41:11;1.77;;;1.63;;
11539;SDS011;5826;54.756;9.192;2023-06-22T14:43:37;1.80;;;1.70;;
11539;SDS011;5826;54.756;9.192;2023-06-22T14:46:03;2.00;;;1.80;;
11539;SDS011;5826;54.756;9.192;2023-06-22T14:48:28;1.70;;;1.60;;
11539;SDS011;5826;54.756;9.192;2023-06-22T14:50:54;2.08;;;1.88;;
11539;SDS011;5826;54.756;9.192;2023-06-22T14:53:19;2.38;;;1.80;;
11539;SDS011;5826;54.756;9.192;2023-06-22T14:55:45;1.65;;;1.55;;
11539;SDS011;5826;54.756;9.192;2023-06-22T14:58:10;1.98;;;1.77;;